Terminal Aerodrome Forecast
Issued by NWS Chicago, IL

Home | Current Version | Previous Version | Graphics & Text | Print | Product List | Glossary On
Versions: 1 2 3 4 5 6 7 8 9 10 11 12 13 14 15 16 17 18 19 20 21 22 23 24 25 26 27 28 29
000
FTUS43 KLOT 212340
TAFRFD
TAF
KRFD 212340Z 2200/2224 22004KT P6SM SCT150 BKN250
     FM220400 VRB03KT 5SM BR SKC
     FM221500 22010KT P6SM SKC
     FM221800 22012G18KT P6SM SKC=

USA.gov is the U.S. government's official web portal to all federal, state and local government web resources and services.